Vaughan, Canada
Current Conditions -  °F | °C
As of 6:00 AM on Friday 28 Nov 2014 (Local Time) from CYYZ Reporting Station
Few Clouds Few Clouds  
Wind Chill: 10°   Ceiling: Unl
Heat Index: 21°   Visibility: 15mi
Dew Point: 12°   Wind: 10mph
Humidity: 68%   Direction: 290°WNW
Pressure: 30.23"   Gusts: NA
Location:  43.79°N, 79.54°W
Report Text: CYYZ 281100Z 29009KT 15SM FEW028 M06/M11 A3023 RMK SF1 SF TR SLP245
Loading
Personal Weather Stations






























Interactive Weather Map New forecast layout! Learn more

10-Day Weather Forecast

Advertisements
Track Severe Weather on mobile